Time;durP1;ratioP1;P1;durP2;ratioP2;P2;SDS_P1;SDS_P2;PMS_P1;PMS_P2;Temp;Humidity;BMP_temperature;BMP_pressure;BME280_temperature;BME280_humidity;BME280_pressure;Samples;Min_cycle;Max_cycle;Signal;HPM_P1;HPM_P2
2023/10/07 00:00:32;;;;;;;8.40;7.60;;;;;;;;;;4975250;28;20418;-61
2023/10/07 00:02:59;;;;;;;8.13;7.20;;;;;;;;;;4975705;28;20797;-62
2023/10/07 00:05:41;;;;;;;12.10;6.63;;;;;;;;;;4975477;28;20426;-61
2023/10/07 00:08:08;;;;;;;7.87;6.27;;;;;;;;;;4975556;28;20480;-61
2023/10/07 00:10:36;;;;;;;7.47;6.67;;;;;;;;;;4975371;28;20461;-61
2023/10/07 00:13:09;;;;;;;7.97;5.93;;;;;;;;;;4975322;28;20422;-61
2023/10/07 00:15:36;;;;;;;9.03;6.03;;;;;;;;;;4975320;28;20474;-61
2023/10/07 00:18:12;;;;;;;6.00;5.40;;;;;;;;;;4975423;28;20468;-61
2023/10/07 00:20:46;;;;;;;6.27;5.17;;;;;;;;;;4975019;28;20999;-61
2023/10/07 00:23:23;;;;;;;6.33;5.70;;;;;;;;;;4975460;28;20435;-61
2023/10/07 00:25:54;;;;;;;6.10;5.47;;;;;;;;;;4974776;28;20437;-61
2023/10/07 00:30:50;;;;;;;5.97;5.37;;;;;;;;;;4974697;28;20467;-61
2023/10/07 00:33:21;;;;;;;5.83;5.33;;;;;;;;;;4974682;28;20934;-61
2023/10/07 00:35:53;;;;;;;5.80;5.30;;;;;;;;;;4974893;28;20422;-61
2023/10/07 00:38:22;;;;;;;6.13;5.00;;;;;;;;;;4989477;28;20438;-61
2023/10/07 00:40:56;;;;;;;6.37;5.77;;;;;;;;;;4974923;28;20418;-61
2023/10/07 00:43:30;;;;;;;5.70;5.10;;;;;;;;;;4975045;28;20387;-62
2023/10/07 00:46:10;;;;;;;7.13;6.40;;;;;;;;;;4974759;28;20428;-61
2023/10/07 00:48:59;;;;;;;6.30;5.73;;;;;;;;;;4974676;28;20410;-61
2023/10/07 00:51:34;;;;;;;7.60;5.77;;;;;;;;;;4974887;28;20433;-61
2023/10/07 00:54:17;;;;;;;6.20;5.40;;;;;;;;;;4975130;28;20391;-61
2023/10/07 00:56:51;;;;;;;7.83;5.60;;;;;;;;;;4974346;28;20422;-61
2023/10/07 00:59:19;;;;;;;5.03;4.50;;;;;;;;;;4974511;28;20399;-61
2023/10/07 01:01:49;;;;;;;5.30;4.90;;;;;;;;;;4974612;28;20417;-61
2023/10/07 01:04:16;;;;;;;4.40;4.20;;;;;;;;;;4974552;28;20529;-61
2023/10/07 01:06:45;;;;;;;7.03;5.23;;;;;;;;;;4974419;28;20421;-61
2023/10/07 01:09:14;;;;;;;5.30;4.83;;;;;;;;;;4974571;28;20450;-61
2023/10/07 01:11:41;;;;;;;7.57;5.40;;;;;;;;;;4974730;28;20391;-61
2023/10/07 01:14:12;;;;;;;7.00;6.40;;;;;;;;;;4974477;28;20983;-61
2023/10/07 01:16:41;;;;;;;5.40;5.00;;;;;;;;;;4974242;28;20938;-61
2023/10/07 01:21:50;;;;;;;6.07;4.80;;;;;;;;;;4974325;28;20426;-61
2023/10/07 01:24:23;;;;;;;4.90;4.40;;;;;;;;;;4973886;28;20421;-61
2023/10/07 01:26:50;;;;;;;5.80;4.60;;;;;;;;;;4974199;28;20426;-61
2023/10/07 01:29:20;;;;;;;3.80;3.60;;;;;;;;;;4973780;28;20589;-61
2023/10/07 01:32:12;;;;;;;5.03;4.63;;;;;;;;;;4973910;28;20410;-61
2023/10/07 01:34:38;;;;;;;4.20;3.90;;;;;;;;;;4973668;28;20406;-61
2023/10/07 01:37:05;;;;;;;4.40;4.10;;;;;;;;;;4973197;28;20797;-61
2023/10/07 01:39:40;;;;;;;5.60;4.40;;;;;;;;;;4973641;28;20790;-61
2023/10/07 01:42:20;;;;;;;4.80;4.40;;;;;;;;;;4973485;28;20437;-61
2023/10/07 01:44:48;;;;;;;4.37;4.07;;;;;;;;;;4973660;28;20922;-61
2023/10/07 01:47:24;;;;;;;4.37;4.17;;;;;;;;;;4973128;28;20465;-61
2023/10/07 01:49:53;;;;;;;5.13;4.00;;;;;;;;;;4988637;28;20465;-61
2023/10/07 01:52:21;;;;;;;3.97;3.50;;;;;;;;;;4973768;28;20414;-61
2023/10/07 01:54:52;;;;;;;4.03;3.70;;;;;;;;;;4973160;28;20808;-61
2023/10/07 01:57:19;;;;;;;5.30;4.90;;;;;;;;;;4973484;28;20422;-61
2023/10/07 01:59:45;;;;;;;4.63;4.23;;;;;;;;;;4973737;28;20415;-62
2023/10/07 02:02:13;;;;;;;8.07;5.03;;;;;;;;;;4973355;28;20509;-61
2023/10/07 02:04:39;;;;;;;5.10;4.80;;;;;;;;;;4973586;28;20497;-61
2023/10/07 02:07:05;;;;;;;7.30;6.60;;;;;;;;;;4973693;28;20858;-61
2023/10/07 02:09:40;;;;;;;6.87;5.93;;;;;;;;;;4972432;28;20997;-61
2023/10/07 02:12:11;;;;;;;7.23;6.53;;;;;;;;;;4973472;28;20442;-61
2023/10/07 02:14:38;;;;;;;5.63;5.27;;;;;;;;;;4973426;28;20403;-61
2023/10/07 02:17:07;;;;;;;5.20;4.80;;;;;;;;;;4973480;28;20865;-61
2023/10/07 02:19:33;;;;;;;5.60;4.73;;;;;;;;;;4973567;28;20425;-61
2023/10/07 02:22:21;;;;;;;5.17;4.67;;;;;;;;;;4973290;28;20422;-61
2023/10/07 02:25:02;;;;;;;4.87;4.47;;;;;;;;;;4972885;28;20450;-61
2023/10/07 02:27:37;;;;;;;4.80;4.40;;;;;;;;;;4973133;28;20477;-61
2023/10/07 02:30:04;;;;;;;5.57;5.10;;;;;;;;;;4973115;28;20469;-61
2023/10/07 02:32:32;;;;;;;6.57;5.23;;;;;;;;;;4972888;28;20406;-61
2023/10/07 02:35:00;;;;;;;6.90;5.37;;;;;;;;;;4973193;28;20446;-61
2023/10/07 02:37:29;;;;;;;5.80;4.90;;;;;;;;;;4973667;28;20411;-61
2023/10/07 02:39:56;;;;;;;5.13;4.60;;;;;;;;;;4971997;28;20442;-61
2023/10/07 02:42:24;;;;;;;10.73;4.67;;;;;;;;;;4973223;28;20484;-61
2023/10/07 02:45:00;;;;;;;4.97;4.57;;;;;;;;;;4973307;28;20508;-61
2023/10/07 02:47:26;;;;;;;6.07;5.47;;;;;;;;;;4973567;28;20879;-61
2023/10/07 02:49:52;;;;;;;5.23;4.83;;;;;;;;;;4972986;28;20553;-61
2023/10/07 02:52:19;;;;;;;9.93;5.77;;;;;;;;;;4972975;28;20765;-61
2023/10/07 02:55:13;;;;;;;6.73;6.00;;;;;;;;;;4973181;28;20959;-61
2023/10/07 02:57:41;;;;;;;9.73;7.17;;;;;;;;;;4972834;28;20481;-61
2023/10/07 03:00:16;;;;;;;9.43;8.53;;;;;;;;;;4976533;28;20799;-61
2023/10/07 03:02:48;;;;;;;15.30;11.73;;;;;;;;;;4975715;28;21094;-61
2023/10/07 03:05:14;;;;;;;26.50;13.90;;;;;;;;;;4976217;28;20492;-61
2023/10/07 03:07:49;;;;;;;22.63;15.60;;;;;;;;;;4976866;28;20401;-61
2023/10/07 03:10:44;;;;;;;25.20;14.03;;;;;;;;;;4976703;28;20490;-61
2023/10/07 03:13:06;;;;;;;21.60;14.30;;;;;;;;;;4976618;28;20421;-61
2023/10/07 03:18:01;;;;;;;22.23;13.83;;;;;;;;;;4976533;28;20457;-61
2023/10/07 03:20:47;;;;;;;19.50;13.00;;;;;;;;;;4976691;28;20859;-61
2023/10/07 03:23:19;;;;;;;17.30;12.37;;;;;;;;;;4976241;28;20437;-61
2023/10/07 03:28:21;;;;;;;18.63;11.53;;;;;;;;;;4976688;28;20968;-61
2023/10/07 03:30:51;;;;;;;21.53;11.30;;;;;;;;;;4976517;28;20470;-61
2023/10/07 03:33:23;;;;;;;15.90;12.00;;;;;;;;;;4990911;28;20926;-61
2023/10/07 03:38:27;;;;;;;16.23;11.77;;;;;;;;;;4976492;28;20897;-61
2023/10/07 03:40:54;;;;;;;15.30;10.60;;;;;;;;;;4976293;28;20406;-61
2023/10/07 03:43:21;;;;;;;16.90;9.80;;;;;;;;;;4975896;28;20528;-61
2023/10/07 03:45:50;;;;;;;13.53;9.07;;;;;;;;;;4976029;28;20918;-61
2023/10/07 03:48:30;;;;;;;14.50;8.77;;;;;;;;;;4975702;28;20426;-61
2023/10/07 03:50:59;;;;;;;17.50;8.80;;;;;;;;;;4975819;28;20466;-61
2023/10/07 03:53:31;;;;;;;10.90;6.87;;;;;;;;;;4975831;28;20411;-61
2023/10/07 03:55:58;;;;;;;9.50;6.67;;;;;;;;;;4976177;28;20428;-61
2023/10/07 03:58:24;;;;;;;9.13;6.17;;;;;;;;;;4975860;28;20414;-61
2023/10/07 04:00:50;;;;;;;6.20;5.40;;;;;;;;;;4975984;28;20447;-61
2023/10/07 04:03:23;;;;;;;6.90;5.93;;;;;;;;;;4975427;28;20478;-61
2023/10/07 04:05:49;;;;;;;7.83;6.50;;;;;;;;;;4975863;28;20440;-61
2023/10/07 04:08:18;;;;;;;6.50;5.93;;;;;;;;;;4975759;28;20442;-61
2023/10/07 04:10:45;;;;;;;11.23;7.00;;;;;;;;;;4974996;28;20470;-61
2023/10/07 04:13:21;;;;;;;10.70;7.03;;;;;;;;;;4975029;28;20437;-61
2023/10/07 04:15:51;;;;;;;8.40;6.80;;;;;;;;;;4975313;28;20791;-61
2023/10/07 04:18:22;;;;;;;7.60;6.20;;;;;;;;;;4990542;28;20997;-61
2023/10/07 04:23:21;;;;;;;7.00;6.30;;;;;;;;;;4975532;28;20430;-61
2023/10/07 04:25:47;;;;;;;8.33;6.13;;;;;;;;;;4990381;28;20488;-61
2023/10/07 04:28:13;;;;;;;6.73;6.03;;;;;;;;;;4975468;28;20419;-61
2023/10/07 04:30:47;;;;;;;6.30;5.70;;;;;;;;;;4975166;28;20986;-61
2023/10/07 04:33:25;;;;;;;14.10;5.40;;;;;;;;;;4975344;28;20442;-61
2023/10/07 04:35:52;;;;;;;6.20;5.60;;;;;;;;;;4975176;28;20501;-61
2023/10/07 04:43:37;;;;;;;5.73;5.20;;;;;;;;;;4975248;28;20491;-61
2023/10/07 04:46:21;;;;;;;5.10;4.70;;;;;;;;;;4975274;28;20410;-61
2023/10/07 04:49:12;;;;;;;6.57;4.97;;;;;;;;;;4974637;28;20430;-61
2023/10/07 04:54:08;;;;;;;5.20;4.77;;;;;;;;;;4975202;28;21042;-61
2023/10/07 04:56:35;;;;;;;6.20;5.60;;;;;;;;;;4974496;28;20414;-61
2023/10/07 04:59:05;;;;;;;5.80;5.30;;;;;;;;;;4974796;28;20422;-61
2023/10/07 05:01:31;;;;;;;6.00;5.40;;;;;;;;;;4974377;28;20450;-61
2023/10/07 05:04:05;;;;;;;9.50;5.30;;;;;;;;;;4974515;28;20440;-61
2023/10/07 05:06:34;;;;;;;7.17;6.13;;;;;;;;;;4974555;28;20438;-61
2023/10/07 05:09:03;;;;;;;6.10;5.50;;;;;;;;;;4974269;28;20921;-61
2023/10/07 05:11:29;;;;;;;9.30;5.47;;;;;;;;;;4974524;28;20407;-61
2023/10/07 05:13:56;;;;;;;5.47;5.07;;;;;;;;;;4974439;28;20423;-61
2023/10/07 05:16:22;;;;;;;5.07;4.60;;;;;;;;;;4974204;28;20414;-61
2023/10/07 05:18:48;;;;;;;8.30;6.10;;;;;;;;;;4974536;28;20410;-61
2023/10/07 05:21:22;;;;;;;7.30;5.37;;;;;;;;;;4974192;28;20493;-61
2023/10/07 05:23:49;;;;;;;7.60;6.00;;;;;;;;;;4972526;28;20422;-61
2023/10/07 05:26:17;;;;;;;6.90;6.30;;;;;;;;;;4989565;28;20491;-61
2023/10/07 05:28:46;;;;;;;6.37;5.20;;;;;;;;;;4993593;28;20799;-61
2023/10/07 05:31:14;;;;;;;6.77;6.10;;;;;;;;;;4991332;28;20936;-60
2023/10/07 05:33:43;;;;;;;6.43;5.67;;;;;;;;;;4984595;28;20469;-61
2023/10/07 05:36:13;;;;;;;12.47;6.47;;;;;;;;;;4988609;28;20429;-61
2023/10/07 05:38:44;;;;;;;6.53;5.60;;;;;;;;;;4998141;28;20405;-61
2023/10/07 05:41:14;;;;;;;7.77;6.00;;;;;;;;;;5000068;28;20575;-61
2023/10/07 05:43:43;;;;;;;5.77;5.37;;;;;;;;;;4993168;28;20408;-61
2023/10/07 05:46:12;;;;;;;10.40;5.80;;;;;;;;;;4993309;28;20438;-61
2023/10/07 05:48:43;;;;;;;6.10;5.50;;;;;;;;;;4993006;28;20916;-62
2023/10/07 05:51:09;;;;;;;9.73;5.97;;;;;;;;;;4992974;28;20990;-62
2023/10/07 05:53:48;;;;;;;7.68;5.70;;;;;;;;;;4992381;28;20416;-62
2023/10/07 05:56:16;;;;;;;5.60;5.20;;;;;;;;;;4992942;28;20304;-62
2023/10/07 05:58:44;;;;;;;5.30;4.90;;;;;;;;;;4992905;28;20441;-62
2023/10/07 06:01:14;;;;;;;10.60;6.10;;;;;;;;;;4992742;28;20817;-62
2023/10/07 06:03:42;;;;;;;5.77;5.17;;;;;;;;;;4993012;28;20428;-62
2023/10/07 06:06:11;;;;;;;15.30;6.13;;;;;;;;;;4992752;28;20415;-62
2023/10/07 06:08:37;;;;;;;7.30;6.17;;;;;;;;;;4992700;28;20445;-61
2023/10/07 06:11:04;;;;;;;7.33;5.93;;;;;;;;;;4992394;28;20547;-61
2023/10/07 06:13:33;;;;;;;6.10;5.70;;;;;;;;;;4992827;28;20412;-61
2023/10/07 06:16:04;;;;;;;6.07;5.47;;;;;;;;;;4992877;28;20417;-62
2023/10/07 06:18:33;;;;;;;7.27;5.93;;;;;;;;;;4992913;28;20405;-61
2023/10/07 06:21:17;;;;;;;10.00;6.30;;;;;;;;;;4992601;28;20429;-61
2023/10/07 06:23:45;;;;;;;7.57;4.97;;;;;;;;;;4992696;28;20936;-62
2023/10/07 06:26:12;;;;;;;6.70;6.10;;;;;;;;;;4993861;28;20504;-62
2023/10/07 06:28:48;;;;;;;9.97;8.83;;;;;;;;;;4990919;28;20453;-60
2023/10/07 06:31:22;;;;;;;11.63;9.27;;;;;;;;;;4991296;28;20783;-62
2023/10/07 06:34:03;;;;;;;6.47;5.87;;;;;;;;;;4994083;28;20428;-62
2023/10/07 06:36:30;;;;;;;9.03;6.43;;;;;;;;;;4998518;28;20409;-62
2023/10/07 06:39:01;;;;;;;10.87;6.27;;;;;;;;;;5003984;28;20413;-61
2023/10/07 06:41:29;;;;;;;10.20;6.40;;;;;;;;;;5000201;28;20444;-62
2023/10/07 06:43:59;;;;;;;9.90;6.87;;;;;;;;;;4998825;28;20401;-62
2023/10/07 06:46:29;;;;;;;6.93;6.27;;;;;;;;;;4998870;28;20448;-61
2023/10/07 06:48:59;;;;;;;11.20;5.93;;;;;;;;;;4997848;28;20417;-62
2023/10/07 06:51:29;;;;;;;9.53;5.90;;;;;;;;;;4998625;28;20414;-61
2023/10/07 06:53:55;;;;;;;8.93;5.90;;;;;;;;;;4999046;28;20416;-61
2023/10/07 06:56:24;;;;;;;7.87;5.80;;;;;;;;;;4998497;28;20453;-61
2023/10/07 06:58:54;;;;;;;8.57;6.73;;;;;;;;;;4998927;28;20780;-61
2023/10/07 07:01:35;;;;;;;10.70;6.87;;;;;;;;;;4998794;28;20421;-61
2023/10/07 07:04:09;;;;;;;9.60;6.57;;;;;;;;;;4998778;28;20467;-61
2023/10/07 07:06:42;;;;;;;6.90;6.20;;;;;;;;;;4998125;28;20424;-61
2023/10/07 07:09:41;;;;;;;10.10;6.53;;;;;;;;;;4998820;28;20465;-61
2023/10/07 07:11:57;;;;;;;8.47;7.00;;;;;;;;;;4998252;28;20428;-61
2023/10/07 07:14:28;;;;;;;38.57;25.97;;;;;;;;;;4997519;28;20917;-61
2023/10/07 07:16:57;;;;;;;14.40;8.73;;;;;;;;;;4996210;28;20789;-62
2023/10/07 07:19:25;;;;;;;11.23;8.63;;;;;;;;;;4997537;28;20460;-61
2023/10/07 07:21:51;;;;;;;9.80;7.77;;;;;;;;;;4995555;28;20525;-61
2023/10/07 07:24:22;;;;;;;11.80;7.50;;;;;;;;;;4997329;28;20511;-61
2023/10/07 07:26:52;;;;;;;7.13;6.20;;;;;;;;;;4997158;28;20436;-61
2023/10/07 07:29:24;;;;;;;8.07;7.23;;;;;;;;;;4997512;28;20909;-62
2023/10/07 07:31:51;;;;;;;10.30;7.47;;;;;;;;;;4997506;28;20432;-62
2023/10/07 07:34:25;;;;;;;9.87;7.90;;;;;;;;;;4997294;28;20425;-61
2023/10/07 07:37:02;;;;;;;9.30;7.80;;;;;;;;;;4997320;28;20526;-62
2023/10/07 07:39:31;;;;;;;9.13;7.50;;;;;;;;;;4997639;28;20417;-61
2023/10/07 07:42:15;;;;;;;25.23;20.40;;;;;;;;;;4995478;28;20947;-61
2023/10/07 07:44:56;;;;;;;10.23;7.63;;;;;;;;;;4996414;28;20924;-62
2023/10/07 07:47:22;;;;;;;9.33;7.07;;;;;;;;;;4993688;28;20417;-62
2023/10/07 07:49:51;;;;;;;16.17;7.57;;;;;;;;;;4993337;28;20511;-62
2023/10/07 07:52:19;;;;;;;10.17;8.40;;;;;;;;;;4993981;28;20418;-61
2023/10/07 07:54:48;;;;;;;22.27;15.30;;;;;;;;;;4993676;28;20931;-61
2023/10/07 07:57:16;;;;;;;10.63;7.27;;;;;;;;;;4994377;28;20618;-62
2023/10/07 07:59:43;;;;;;;11.20;6.63;;;;;;;;;;4993608;28;20471;-61
2023/10/07 08:02:12;;;;;;;9.10;6.93;;;;;;;;;;4993352;28;20844;-62
2023/10/07 08:04:48;;;;;;;8.87;6.40;;;;;;;;;;4993515;28;20908;-62
2023/10/07 08:09:52;;;;;;;8.33;5.77;;;;;;;;;;4993910;28;20469;-62
2023/10/07 08:12:36;;;;;;;7.20;5.97;;;;;;;;;;4994028;28;20425;-62
2023/10/07 08:17:37;;;;;;;6.60;5.67;;;;;;;;;;4994759;28;20421;-62
2023/10/07 08:20:12;;;;;;;6.77;6.07;;;;;;;;;;4994220;28;20438;-62
2023/10/07 08:22:51;;;;;;;7.93;6.27;;;;;;;;;;4994108;28;20425;-61
2023/10/07 08:28:18;;;;;;;6.20;5.40;;;;;;;;;;4994663;28;20416;-62
2023/10/07 08:30:46;;;;;;;14.17;6.00;;;;;;;;;;4994583;28;20466;-62
2023/10/07 08:33:16;;;;;;;6.60;6.00;;;;;;;;;;4994334;28;20434;-62
2023/10/07 08:35:47;;;;;;;9.00;6.60;;;;;;;;;;4994627;28;20421;-62
2023/10/07 08:38:21;;;;;;;9.23;5.70;;;;;;;;;;4994212;28;20836;-62
2023/10/07 08:40:59;;;;;;;11.40;5.57;;;;;;;;;;4993934;28;20420;-62
2023/10/07 08:43:32;;;;;;;6.60;5.10;;;;;;;;;;4994382;28;20523;-62
2023/10/07 08:46:01;;;;;;;5.07;4.67;;;;;;;;;;4992573;28;20433;-62
2023/10/07 08:48:27;;;;;;;5.23;4.73;;;;;;;;;;4994535;28;20520;-62
2023/10/07 08:50:58;;;;;;;5.70;4.83;;;;;;;;;;4993817;28;20472;-62
2023/10/07 08:53:24;;;;;;;7.73;5.13;;;;;;;;;;4994007;28;20479;-62
2023/10/07 08:56:04;;;;;;;5.53;4.57;;;;;;;;;;4994062;28;20441;-62
2023/10/07 08:58:37;;;;;;;6.23;4.47;;;;;;;;;;4993899;28;20425;-62
2023/10/07 09:01:07;;;;;;;10.93;6.70;;;;;;;;;;4993699;28;20418;-62
2023/10/07 09:03:34;;;;;;;5.90;4.47;;;;;;;;;;4994125;28;20416;-62
2023/10/07 09:06:06;;;;;;;8.67;6.40;;;;;;;;;;4993606;28;20452;-62
2023/10/07 09:08:33;;;;;;;6.93;5.00;;;;;;;;;;4994338;28;20476;-62
2023/10/07 09:10:59;;;;;;;5.33;4.60;;;;;;;;;;4993740;28;20845;-62
2023/10/07 09:13:31;;;;;;;10.87;4.00;;;;;;;;;;4992118;28;20463;-62
2023/10/07 09:16:03;;;;;;;6.57;4.47;;;;;;;;;;4993967;28;20511;-69
2023/10/07 09:18:35;;;;;;;7.33;4.13;;;;;;;;;;4993690;28;20436;-68
2023/10/07 09:21:06;;;;;;;6.43;4.10;;;;;;;;;;4994013;28;20483;-68
2023/10/07 09:23:47;;;;;;;6.30;4.00;;;;;;;;;;4993609;28;20464;-68
2023/10/07 09:26:30;;;;;;;4.20;3.90;;;;;;;;;;4993579;28;20528;-68
2023/10/07 09:28:58;;;;;;;6.33;4.40;;;;;;;;;;4993410;28;20421;-68
2023/10/07 09:31:30;;;;;;;5.73;3.83;;;;;;;;;;4993163;28;20441;-68
2023/10/07 09:34:10;;;;;;;4.70;4.03;;;;;;;;;;4993689;28;20424;-68
2023/10/07 09:36:40;;;;;;;7.50;4.97;;;;;;;;;;4993297;28;20522;-68
2023/10/07 09:39:31;;;;;;;7.07;4.30;;;;;;;;;;4993411;28;20999;-68
2023/10/07 09:42:04;;;;;;;10.07;4.03;;;;;;;;;;4993120;28;20452;-68
2023/10/07 09:44:30;;;;;;;4.77;4.37;;;;;;;;;;4993384;28;20506;-68
2023/10/07 09:47:02;;;;;;;27.87;5.00;;;;;;;;;;4993326;28;20443;-68
2023/10/07 09:49:30;;;;;;;4.63;4.23;;;;;;;;;;4993345;28;20843;-68
2023/10/07 09:52:15;;;;;;;7.00;3.90;;;;;;;;;;4993179;28;20415;-68
2023/10/07 09:54:47;;;;;;;7.43;4.47;;;;;;;;;;4991753;28;20425;-68
2023/10/07 09:57:24;;;;;;;5.70;5.10;;;;;;;;;;4993133;28;20410;-68
2023/10/07 10:00:37;;;;;;;8.50;6.17;;;;;;;;;;4993152;28;20425;-68
2023/10/07 10:03:13;;;;;;;13.60;6.57;;;;;;;;;;4992941;28;20540;-68
2023/10/07 10:05:40;;;;;;;18.33;11.50;;;;;;;;;;4992966;28;20488;-68
2023/10/07 10:08:19;;;;;;;19.20;15.43;;;;;;;;;;4992326;28;20504;-68
2023/10/07 10:10:51;;;;;;;33.67;24.87;;;;;;;;;;4992866;28;20488;-68
2023/10/07 10:14:29;;;;;;;5.10;4.70;;;;;;;;;;4992644;28;20484;-68
2023/10/07 10:16:44;;;;;;;5.83;4.87;;;;;;;;;;4983858;28;20425;-68
2023/10/07 10:20:00;;;;;;;8.03;4.80;;;;;;;;;;4992823;28;20677;-68
2023/10/07 10:22:10;;;;;;;4.90;4.50;;;;;;;;;;4987060;28;20434;-68
2023/10/07 10:24:37;;;;;;;4.63;4.30;;;;;;;;;;4992276;28;20418;-68
2023/10/07 10:27:04;;;;;;;5.00;4.60;;;;;;;;;;4991379;28;20438;-69
2023/10/07 10:29:33;;;;;;;10.67;5.30;;;;;;;;;;4990859;28;20972;-69
2023/10/07 10:32:07;;;;;;;5.40;4.03;;;;;;;;;;4992292;28;20422;-69
2023/10/07 10:34:33;;;;;;;4.83;4.27;;;;;;;;;;4991350;28;20800;-69
2023/10/07 10:36:59;;;;;;;4.63;4.23;;;;;;;;;;4992536;28;20448;-69
2023/10/07 10:39:31;;;;;;;6.43;5.10;;;;;;;;;;4992217;28;20437;-69
2023/10/07 10:42:10;;;;;;;5.50;5.03;;;;;;;;;;4992670;28;20421;-67
2023/10/07 10:44:39;;;;;;;6.50;4.83;;;;;;;;;;4992708;28;20405;-67
2023/10/07 10:47:07;;;;;;;7.43;4.90;;;;;;;;;;4991384;28;20437;-67
2023/10/07 10:49:35;;;;;;;5.33;4.83;;;;;;;;;;4992424;28;20999;-67
2023/10/07 10:52:02;;;;;;;11.77;5.53;;;;;;;;;;4992500;28;20913;-67
2023/10/07 10:54:28;;;;;;;6.00;5.43;;;;;;;;;;4992597;28;20726;-68
2023/10/07 10:56:57;;;;;;;5.47;4.80;;;;;;;;;;4992262;28;20436;-68
2023/10/07 10:59:35;;;;;;;7.00;6.20;;;;;;;;;;4991874;28;20446;-68
2023/10/07 11:02:01;;;;;;;5.33;4.80;;;;;;;;;;4992487;28;20496;-68
2023/10/07 11:04:29;;;;;;;5.23;4.70;;;;;;;;;;4992133;28;20414;-68
2023/10/07 11:06:55;;;;;;;11.40;5.07;;;;;;;;;;4992531;28;20513;-68
2023/10/07 11:09:35;;;;;;;10.53;5.90;;;;;;;;;;4991595;28;20922;-68
2023/10/07 11:12:12;;;;;;;6.50;4.40;;;;;;;;;;4991854;28;20815;-68
2023/10/07 11:14:42;;;;;;;5.93;4.73;;;;;;;;;;4992763;28;20391;-68
2023/10/07 11:17:12;;;;;;;13.03;4.80;;;;;;;;;;4992279;28;20434;-68
2023/10/07 11:19:47;;;;;;;5.80;4.30;;;;;;;;;;4992310;28;20426;-67
2023/10/07 11:22:14;;;;;;;7.83;4.10;;;;;;;;;;4995763;28;20445;-68
2023/10/07 11:24:40;;;;;;;5.13;3.80;;;;;;;;;;4996296;28;20425;-68
2023/10/07 11:27:08;;;;;;;5.20;4.80;;;;;;;;;;4995827;28;20445;-68
2023/10/07 11:29:38;;;;;;;6.03;4.30;;;;;;;;;;4995484;28;20472;-68
2023/10/07 11:32:06;;;;;;;7.37;4.20;;;;;;;;;;4995703;28;20416;-68
2023/10/07 11:34:37;;;;;;;4.80;4.33;;;;;;;;;;4995726;28;20416;-68
2023/10/07 11:37:13;;;;;;;3.83;3.63;;;;;;;;;;4995725;28;20828;-68
2023/10/07 11:39:45;;;;;;;5.03;4.50;;;;;;;;;;4995680;28;20412;-67
2023/10/07 11:42:15;;;;;;;4.00;3.70;;;;;;;;;;4995472;28;20421;-67
2023/10/07 11:44:42;;;;;;;9.83;4.73;;;;;;;;;;4995160;28;20441;-67
2023/10/07 11:47:10;;;;;;;7.20;4.37;;;;;;;;;;4995176;28;20422;-67
2023/10/07 11:49:37;;;;;;;10.10;4.50;;;;;;;;;;4995370;28;20988;-67
2023/10/07 11:52:04;;;;;;;7.93;4.07;;;;;;;;;;4995637;28;20402;-67
2023/10/07 11:54:34;;;;;;;4.90;4.40;;;;;;;;;;4994174;28;20422;-67
2023/10/07 11:57:01;;;;;;;4.77;4.37;;;;;;;;;;4995386;28;20413;-68
2023/10/07 11:59:27;;;;;;;9.23;3.93;;;;;;;;;;4995249;28;20584;-67
2023/10/07 12:02:00;;;;;;;7.00;3.73;;;;;;;;;;4993715;28;20422;-67
2023/10/07 12:04:26;;;;;;;4.27;3.87;;;;;;;;;;4994930;28;20441;-67
2023/10/07 12:06:53;;;;;;;18.23;16.53;;;;;;;;;;4994933;28;20448;-67
2023/10/07 12:09:21;;;;;;;4.40;4.00;;;;;;;;;;4993761;28;20527;-67
2023/10/07 12:11:48;;;;;;;4.63;4.20;;;;;;;;;;4995117;28;20516;-67
2023/10/07 12:14:16;;;;;;;6.87;4.03;;;;;;;;;;4994957;28;20421;-67
2023/10/07 12:16:43;;;;;;;6.03;4.43;;;;;;;;;;4994648;28;20428;-67
2023/10/07 12:19:17;;;;;;;4.10;3.70;;;;;;;;;;4994836;28;20418;-67
2023/10/07 12:21:43;;;;;;;4.20;3.80;;;;;;;;;;4994328;28;20428;-69
2023/10/07 12:24:11;;;;;;;4.07;3.87;;;;;;;;;;4994849;28;20475;-67
2023/10/07 12:26:40;;;;;;;3.90;3.63;;;;;;;;;;4994278;28;20456;-66
2023/10/07 12:29:06;;;;;;;5.47;3.87;;;;;;;;;;4994626;28;20471;-67
2023/10/07 12:31:36;;;;;;;10.63;4.30;;;;;;;;;;4994316;28;20420;-67
2023/10/07 12:34:01;;;;;;;3.53;3.33;;;;;;;;;;4994857;28;20434;-66
2023/10/07 12:36:30;;;;;;;3.70;3.40;;;;;;;;;;4994718;28;20436;-66
2023/10/07 12:38:56;;;;;;;9.97;4.10;;;;;;;;;;4993076;28;20427;-66
2023/10/07 12:41:22;;;;;;;6.93;4.30;;;;;;;;;;4994570;28;20477;-66
2023/10/07 12:43:48;;;;;;;9.00;3.30;;;;;;;;;;4994017;28;20836;-66
2023/10/07 12:46:14;;;;;;;4.70;3.80;;;;;;;;;;4994117;28;20424;-66
2023/10/07 12:48:41;;;;;;;7.60;3.30;;;;;;;;;;4993318;28;20424;-66
2023/10/07 12:51:11;;;;;;;4.37;4.00;;;;;;;;;;4993724;28;20464;-66
2023/10/07 12:53:40;;;;;;;4.00;3.57;;;;;;;;;;4993823;28;20762;-66
2023/10/07 12:56:19;;;;;;;3.67;3.40;;;;;;;;;;4994170;28;20459;-67
2023/10/07 12:58:53;;;;;;;4.30;3.77;;;;;;;;;;4993874;28;20486;-66
2023/10/07 13:01:19;;;;;;;4.53;4.03;;;;;;;;;;4994534;28;20465;-66
2023/10/07 13:03:47;;;;;;;4.37;3.80;;;;;;;;;;4994296;28;20508;-66
2023/10/07 13:06:16;;;;;;;4.50;3.23;;;;;;;;;;4993797;28;20430;-66
2023/10/07 13:08:44;;;;;;;4.80;4.40;;;;;;;;;;4992584;28;20539;-66
2023/10/07 13:11:14;;;;;;;9.50;3.80;;;;;;;;;;4992433;28;20471;-67
2023/10/07 13:13:40;;;;;;;4.10;3.80;;;;;;;;;;4992588;28;20969;-67
2023/10/07 13:16:17;;;;;;;4.87;3.30;;;;;;;;;;4991886;28;20410;-67
2023/10/07 13:18:49;;;;;;;7.10;3.73;;;;;;;;;;4993726;28;20487;-69
2023/10/07 13:21:18;;;;;;;4.07;3.63;;;;;;;;;;4994176;28;20530;-70
2023/10/07 13:23:46;;;;;;;6.10;3.03;;;;;;;;;;4993706;28;20418;-69
2023/10/07 13:26:12;;;;;;;5.50;3.30;;;;;;;;;;4992555;28;20793;-69
2023/10/07 13:28:39;;;;;;;9.03;4.20;;;;;;;;;;4993406;28;20437;-69
2023/10/07 13:31:09;;;;;;;6.37;3.97;;;;;;;;;;4991708;28;20510;-69
2023/10/07 13:33:38;;;;;;;3.90;3.47;;;;;;;;;;4992004;28;20428;-69
2023/10/07 13:36:06;;;;;;;3.73;3.43;;;;;;;;;;4993637;28;20916;-70
2023/10/07 13:38:32;;;;;;;5.80;3.33;;;;;;;;;;4993687;28;20788;-70
2023/10/07 13:41:01;;;;;;;9.63;4.17;;;;;;;;;;4993554;28;20808;-69
2023/10/07 13:43:33;;;;;;;3.77;3.47;;;;;;;;;;4992459;28;20773;-70
2023/10/07 13:46:01;;;;;;;3.50;3.30;;;;;;;;;;4993188;28;20915;-69
2023/10/07 13:48:27;;;;;;;3.43;3.20;;;;;;;;;;4993236;28;20412;-69
2023/10/07 13:51:00;;;;;;;5.40;3.13;;;;;;;;;;4993364;28;20473;-69
2023/10/07 13:53:50;;;;;;;3.30;3.07;;;;;;;;;;4993070;28;20438;-69
2023/10/07 13:56:23;;;;;;;3.00;2.80;;;;;;;;;;4992736;28;20427;-70
2023/10/07 13:58:49;;;;;;;3.23;3.03;;;;;;;;;;4993550;28;20792;-70
2023/10/07 14:01:17;;;;;;;3.27;2.90;;;;;;;;;;4993244;28;20421;-70
2023/10/07 14:03:44;;;;;;;6.33;3.70;;;;;;;;;;4992984;28;20452;-70
2023/10/07 14:06:12;;;;;;;4.57;3.10;;;;;;;;;;4992953;28;20418;-70
2023/10/07 14:08:43;;;;;;;2.83;2.60;;;;;;;;;;4992927;28;20907;-70
2023/10/07 14:11:11;;;;;;;4.10;3.23;;;;;;;;;;4992797;28;20472;-69
2023/10/07 14:13:40;;;;;;;3.40;3.10;;;;;;;;;;4993027;28;20928;-69
2023/10/07 14:16:10;;;;;;;3.37;2.97;;;;;;;;;;4993020;28;20413;-69
2023/10/07 14:18:39;;;;;;;3.20;3.00;;;;;;;;;;4992817;28;20413;-69
2023/10/07 14:21:06;;;;;;;3.57;3.27;;;;;;;;;;4991605;28;20460;-69
2023/10/07 14:23:33;;;;;;;3.43;3.07;;;;;;;;;;4992761;28;20516;-69
2023/10/07 14:26:02;;;;;;;4.60;3.50;;;;;;;;;;4992132;28;20468;-69
2023/10/07 14:28:31;;;;;;;7.80;3.60;;;;;;;;;;4992749;28;20428;-69
2023/10/07 14:30:57;;;;;;;3.90;3.50;;;;;;;;;;4992683;28;21012;-69
2023/10/07 14:33:23;;;;;;;3.83;3.30;;;;;;;;;;4992803;28;20417;-69
2023/10/07 14:35:53;;;;;;;3.30;3.10;;;;;;;;;;4992725;28;20410;-69
2023/10/07 14:38:20;;;;;;;3.40;3.20;;;;;;;;;;4992705;28;20513;-69
2023/10/07 14:40:49;;;;;;;5.90;3.43;;;;;;;;;;4992433;28;20436;-70
2023/10/07 14:43:16;;;;;;;6.33;3.57;;;;;;;;;;4993111;28;20446;-69
2023/10/07 14:45:49;;;;;;;4.87;3.33;;;;;;;;;;4992403;28;20897;-69
2023/10/07 14:48:17;;;;;;;3.30;3.00;;;;;;;;;;4992595;28;20494;-69
2023/10/07 14:50:44;;;;;;;3.97;3.53;;;;;;;;;;4992465;28;20554;-69
2023/10/07 14:53:13;;;;;;;4.03;3.63;;;;;;;;;;4992555;28;20480;-69
2023/10/07 14:55:44;;;;;;;4.33;3.93;;;;;;;;;;4995179;28;20453;-69
2023/10/07 14:58:13;;;;;;;6.10;4.00;;;;;;;;;;4996401;28;20456;-69
2023/10/07 15:00:46;;;;;;;5.33;3.87;;;;;;;;;;4995178;28;20431;-69
2023/10/07 15:03:12;;;;;;;3.10;2.90;;;;;;;;;;4996448;28;20413;-69
2023/10/07 15:05:38;;;;;;;3.93;3.47;;;;;;;;;;4996126;28;20455;-69
2023/10/07 15:08:05;;;;;;;6.53;4.57;;;;;;;;;;4996273;28;20837;-69
2023/10/07 15:10:34;;;;;;;10.70;6.90;;;;;;;;;;4995970;28;20491;-69
2023/10/07 15:13:00;;;;;;;4.83;3.73;;;;;;;;;;4996145;28;20445;-69
2023/10/07 15:15:26;;;;;;;4.27;3.90;;;;;;;;;;4996113;28;20506;-69
2023/10/07 15:17:52;;;;;;;4.17;3.77;;;;;;;;;;4994839;28;20828;-69
2023/10/07 15:20:22;;;;;;;6.07;4.40;;;;;;;;;;4996205;28;20432;-69
2023/10/07 15:22:48;;;;;;;4.07;3.67;;;;;;;;;;4996119;28;20436;-69
2023/10/07 15:25:14;;;;;;;4.10;3.77;;;;;;;;;;4996003;28;20441;-69
2023/10/07 15:27:40;;;;;;;4.80;4.17;;;;;;;;;;4996026;28;20465;-69
2023/10/07 15:30:08;;;;;;;5.10;4.70;;;;;;;;;;4995788;28;20467;-70
2023/10/07 15:32:34;;;;;;;4.40;3.90;;;;;;;;;;4995831;28;21076;-69